sensor_id;sensor_type;location;lat;lon;timestamp;temperature;humidity
25050;DHT22;13046;49.814;9.918;2023-05-07T00:01:49;13.40;99.90
25050;DHT22;13046;49.814;9.918;2023-05-07T00:04:15;13.50;99.90
25050;DHT22;13046;49.814;9.918;2023-05-07T00:06:40;13.60;99.90
25050;DHT22;13046;49.814;9.918;2023-05-07T00:09:06;13.60;99.90
25050;DHT22;13046;49.814;9.918;2023-05-07T00:11:32;13.60;99.90
25050;DHT22;13046;49.814;9.918;2023-05-07T00:13:58;13.60;99.90
25050;DHT22;13046;49.814;9.918;2023-05-07T00:16:24;13.60;99.90
25050;DHT22;13046;49.814;9.918;2023-05-07T00:18:50;13.60;99.90
25050;DHT22;13046;49.814;9.918;2023-05-07T00:21:16;13.70;99.90
25050;DHT22;13046;49.814;9.918;2023-05-07T00:23:41;13.60;99.90
25050;DHT22;13046;49.814;9.918;2023-05-07T00:26:07;13.50;99.90
25050;DHT22;13046;49.814;9.918;2023-05-07T00:28:32;13.50;99.90
25050;DHT22;13046;49.814;9.918;2023-05-07T00:30:58;13.50;99.90
25050;DHT22;13046;49.814;9.918;2023-05-07T00:33:24;13.50;99.90
25050;DHT22;13046;49.814;9.918;2023-05-07T00:35:52;13.40;99.90
25050;DHT22;13046;49.814;9.918;2023-05-07T00:38:19;13.40;99.90
25050;DHT22;13046;49.814;9.918;2023-05-07T00:40:45;13.40;99.90
25050;DHT22;13046;49.814;9.918;2023-05-07T00:43:11;13.30;99.90
25050;DHT22;13046;49.814;9.918;2023-05-07T00:45:38;13.30;99.90
25050;DHT22;13046;49.814;9.918;2023-05-07T00:48:04;13.20;99.90
25050;DHT22;13046;49.814;9.918;2023-05-07T00:50:30;13.20;99.90
25050;DHT22;13046;49.814;9.918;2023-05-07T00:52:56;13.10;99.90
25050;DHT22;13046;49.814;9.918;2023-05-07T00:55:23;13.20;99.90
25050;DHT22;13046;49.814;9.918;2023-05-07T00:57:49;13.10;99.90
25050;DHT22;13046;49.814;9.918;2023-05-07T01:00:15;13.10;99.90
25050;DHT22;13046;49.814;9.918;2023-05-07T01:02:42;13.10;99.90
25050;DHT22;13046;49.814;9.918;2023-05-07T01:05:10;13.20;99.90
25050;DHT22;13046;49.814;9.918;2023-05-07T01:07:40;13.20;99.90
25050;DHT22;13046;49.814;9.918;2023-05-07T01:10:06;13.10;99.90
25050;DHT22;13046;49.814;9.918;2023-05-07T01:12:33;13.10;99.90
25050;DHT22;13046;49.814;9.918;2023-05-07T01:15:00;13.00;99.90
25050;DHT22;13046;49.814;9.918;2023-05-07T01:17:26;12.90;99.90
25050;DHT22;13046;49.814;9.918;2023-05-07T01:19:52;12.90;99.90
25050;DHT22;13046;49.814;9.918;2023-05-07T01:22:48;12.90;99.90
25050;DHT22;13046;49.814;9.918;2023-05-07T01:25:14;12.80;99.90
25050;DHT22;13046;49.814;9.918;2023-05-07T01:27:46;12.70;99.90
25050;DHT22;13046;49.814;9.918;2023-05-07T01:30:12;12.70;99.90
25050;DHT22;13046;49.814;9.918;2023-05-07T01:32:51;12.60;99.90
25050;DHT22;13046;49.814;9.918;2023-05-07T01:35:25;12.60;99.90
25050;DHT22;13046;49.814;9.918;2023-05-07T01:37:52;12.50;99.90
25050;DHT22;13046;49.814;9.918;2023-05-07T01:40:18;12.40;99.90
25050;DHT22;13046;49.814;9.918;2023-05-07T01:42:44;12.40;99.90
25050;DHT22;13046;49.814;9.918;2023-05-07T01:45:11;12.40;99.90
25050;DHT22;13046;49.814;9.918;2023-05-07T01:47:37;12.40;99.90
25050;DHT22;13046;49.814;9.918;2023-05-07T01:50:07;12.30;99.90
25050;DHT22;13046;49.814;9.918;2023-05-07T01:52:39;12.20;99.90
25050;DHT22;13046;49.814;9.918;2023-05-07T01:55:05;12.20;99.90
25050;DHT22;13046;49.814;9.918;2023-05-07T01:57:31;12.20;99.90
25050;DHT22;13046;49.814;9.918;2023-05-07T01:59:57;12.20;99.90
25050;DHT22;13046;49.814;9.918;2023-05-07T02:02:22;12.20;99.90
25050;DHT22;13046;49.814;9.918;2023-05-07T02:04:49;12.20;99.90
25050;DHT22;13046;49.814;9.918;2023-05-07T02:07:15;12.10;99.90
25050;DHT22;13046;49.814;9.918;2023-05-07T02:09:41;12.10;99.90
25050;DHT22;13046;49.814;9.918;2023-05-07T02:12:07;12.10;99.90
25050;DHT22;13046;49.814;9.918;2023-05-07T02:14:33;12.00;99.90
25050;DHT22;13046;49.814;9.918;2023-05-07T02:16:59;12.00;99.90
25050;DHT22;13046;49.814;9.918;2023-05-07T02:19:24;12.00;99.90
25050;DHT22;13046;49.814;9.918;2023-05-07T02:21:51;12.00;99.90
25050;DHT22;13046;49.814;9.918;2023-05-07T02:24:16;11.90;99.90
25050;DHT22;13046;49.814;9.918;2023-05-07T02:26:42;11.80;99.90
25050;DHT22;13046;49.814;9.918;2023-05-07T02:29:08;11.80;99.90
25050;DHT22;13046;49.814;9.918;2023-05-07T02:31:33;11.80;99.90
25050;DHT22;13046;49.814;9.918;2023-05-07T02:34:00;11.80;99.90
25050;DHT22;13046;49.814;9.918;2023-05-07T02:36:26;11.80;99.90
25050;DHT22;13046;49.814;9.918;2023-05-07T02:39:02;11.80;99.90
25050;DHT22;13046;49.814;9.918;2023-05-07T02:41:28;11.90;99.90
25050;DHT22;13046;49.814;9.918;2023-05-07T02:43:54;11.90;99.90
25050;DHT22;13046;49.814;9.918;2023-05-07T02:46:20;11.90;99.90
25050;DHT22;13046;49.814;9.918;2023-05-07T02:48:51;11.90;99.90
25050;DHT22;13046;49.814;9.918;2023-05-07T02:51:20;12.00;99.90
25050;DHT22;13046;49.814;9.918;2023-05-07T02:53:46;12.00;99.90
25050;DHT22;13046;49.814;9.918;2023-05-07T02:56:12;11.90;99.90
25050;DHT22;13046;49.814;9.918;2023-05-07T02:58:38;12.00;99.90
25050;DHT22;13046;49.814;9.918;2023-05-07T03:01:08;12.00;99.90
25050;DHT22;13046;49.814;9.918;2023-05-07T03:03:38;12.00;99.90
25050;DHT22;13046;49.814;9.918;2023-05-07T03:06:06;12.00;99.90
25050;DHT22;13046;49.814;9.918;2023-05-07T03:08:32;12.00;99.90
25050;DHT22;13046;49.814;9.918;2023-05-07T03:10:58;12.00;99.90
25050;DHT22;13046;49.814;9.918;2023-05-07T03:13:24;12.00;99.90
25050;DHT22;13046;49.814;9.918;2023-05-07T03:15:50;12.10;99.90
25050;DHT22;13046;49.814;9.918;2023-05-07T03:18:16;12.10;99.90
25050;DHT22;13046;49.814;9.918;2023-05-07T03:20:42;12.10;99.90
25050;DHT22;13046;49.814;9.918;2023-05-07T03:23:07;12.10;99.90
25050;DHT22;13046;49.814;9.918;2023-05-07T03:25:33;12.10;99.90
25050;DHT22;13046;49.814;9.918;2023-05-07T03:27:59;12.10;99.90
25050;DHT22;13046;49.814;9.918;2023-05-07T03:30:32;12.10;99.90
25050;DHT22;13046;49.814;9.918;2023-05-07T03:32:59;12.10;99.90
25050;DHT22;13046;49.814;9.918;2023-05-07T03:35:25;12.00;99.90
25050;DHT22;13046;49.814;9.918;2023-05-07T03:37:51;12.00;99.90
25050;DHT22;13046;49.814;9.918;2023-05-07T03:40:17;11.90;99.90
25050;DHT22;13046;49.814;9.918;2023-05-07T03:42:48;12.00;99.90
25050;DHT22;13046;49.814;9.918;2023-05-07T03:45:15;12.00;99.90
25050;DHT22;13046;49.814;9.918;2023-05-07T03:47:46;12.00;99.90
25050;DHT22;13046;49.814;9.918;2023-05-07T03:50:16;12.00;99.90
25050;DHT22;13046;49.814;9.918;2023-05-07T03:52:41;12.00;99.90
25050;DHT22;13046;49.814;9.918;2023-05-07T03:55:09;12.00;99.90
25050;DHT22;13046;49.814;9.918;2023-05-07T03:57:36;11.90;99.90
25050;DHT22;13046;49.814;9.918;2023-05-07T04:00:03;12.00;99.90
25050;DHT22;13046;49.814;9.918;2023-05-07T04:02:35;12.00;99.90
25050;DHT22;13046;49.814;9.918;2023-05-07T04:05:02;12.00;99.90
25050;DHT22;13046;49.814;9.918;2023-05-07T04:07:28;12.00;99.90
25050;DHT22;13046;49.814;9.918;2023-05-07T04:09:53;12.00;99.90
25050;DHT22;13046;49.814;9.918;2023-05-07T04:12:19;12.10;99.90
25050;DHT22;13046;49.814;9.918;2023-05-07T04:14:45;12.10;99.90
25050;DHT22;13046;49.814;9.918;2023-05-07T04:17:11;12.10;99.90
25050;DHT22;13046;49.814;9.918;2023-05-07T04:19:37;12.10;99.90
25050;DHT22;13046;49.814;9.918;2023-05-07T04:22:03;12.20;99.90
25050;DHT22;13046;49.814;9.918;2023-05-07T04:24:32;12.20;99.90
25050;DHT22;13046;49.814;9.918;2023-05-07T04:26:59;12.30;99.90
25050;DHT22;13046;49.814;9.918;2023-05-07T04:29:25;12.30;99.90
25050;DHT22;13046;49.814;9.918;2023-05-07T04:31:51;12.30;99.90
25050;DHT22;13046;49.814;9.918;2023-05-07T04:34:17;12.40;99.90
25050;DHT22;13046;49.814;9.918;2023-05-07T04:36:42;12.50;99.90
25050;DHT22;13046;49.814;9.918;2023-05-07T04:39:10;12.60;99.90
25050;DHT22;13046;49.814;9.918;2023-05-07T04:41:38;12.60;99.90
25050;DHT22;13046;49.814;9.918;2023-05-07T04:44:05;12.70;99.90
25050;DHT22;13046;49.814;9.918;2023-05-07T04:46:32;12.80;99.90
25050;DHT22;13046;49.814;9.918;2023-05-07T04:48:58;12.80;99.90
25050;DHT22;13046;49.814;9.918;2023-05-07T04:51:23;12.90;99.90
25050;DHT22;13046;49.814;9.918;2023-05-07T04:53:49;13.00;99.90
25050;DHT22;13046;49.814;9.918;2023-05-07T04:56:15;13.10;99.90
25050;DHT22;13046;49.814;9.918;2023-05-07T04:58:43;13.10;99.90
25050;DHT22;13046;49.814;9.918;2023-05-07T05:01:10;13.30;99.90
25050;DHT22;13046;49.814;9.918;2023-05-07T05:03:36;13.40;99.90
25050;DHT22;13046;49.814;9.918;2023-05-07T05:06:02;13.50;99.90
25050;DHT22;13046;49.814;9.918;2023-05-07T05:08:31;13.60;99.90
25050;DHT22;13046;49.814;9.918;2023-05-07T05:10:57;13.70;99.90
25050;DHT22;13046;49.814;9.918;2023-05-07T05:13:23;13.80;99.90
25050;DHT22;13046;49.814;9.918;2023-05-07T05:15:50;13.80;99.90
25050;DHT22;13046;49.814;9.918;2023-05-07T05:18:16;13.80;99.90
25050;DHT22;13046;49.814;9.918;2023-05-07T05:20:41;13.80;99.90
25050;DHT22;13046;49.814;9.918;2023-05-07T05:23:08;13.80;99.90
25050;DHT22;13046;49.814;9.918;2023-05-07T05:25:33;13.90;99.90
25050;DHT22;13046;49.814;9.918;2023-05-07T05:28:00;13.90;99.90
25050;DHT22;13046;49.814;9.918;2023-05-07T05:30:27;13.90;99.90
25050;DHT22;13046;49.814;9.918;2023-05-07T05:32:53;13.90;99.90
25050;DHT22;13046;49.814;9.918;2023-05-07T05:35:19;13.80;99.90
25050;DHT22;13046;49.814;9.918;2023-05-07T05:37:45;13.90;99.90
25050;DHT22;13046;49.814;9.918;2023-05-07T05:40:11;13.90;99.90
25050;DHT22;13046;49.814;9.918;2023-05-07T05:42:37;14.00;99.90
25050;DHT22;13046;49.814;9.918;2023-05-07T05:45:03;14.00;99.90
25050;DHT22;13046;49.814;9.918;2023-05-07T05:47:31;14.10;99.90
25050;DHT22;13046;49.814;9.918;2023-05-07T05:49:57;14.20;99.90
25050;DHT22;13046;49.814;9.918;2023-05-07T05:52:22;14.20;99.90
25050;DHT22;13046;49.814;9.918;2023-05-07T05:54:49;14.30;99.90
25050;DHT22;13046;49.814;9.918;2023-05-07T05:57:16;14.40;99.90
25050;DHT22;13046;49.814;9.918;2023-05-07T05:59:42;14.50;99.90
25050;DHT22;13046;49.814;9.918;2023-05-07T06:02:08;14.40;99.90
25050;DHT22;13046;49.814;9.918;2023-05-07T06:04:33;14.50;99.90
25050;DHT22;13046;49.814;9.918;2023-05-07T06:06:59;14.50;99.90
25050;DHT22;13046;49.814;9.918;2023-05-07T06:09:25;14.60;99.90
25050;DHT22;13046;49.814;9.918;2023-05-07T06:11:51;14.60;99.90
25050;DHT22;13046;49.814;9.918;2023-05-07T06:14:17;14.60;99.90
25050;DHT22;13046;49.814;9.918;2023-05-07T06:16:43;14.60;99.90
25050;DHT22;13046;49.814;9.918;2023-05-07T06:19:09;14.60;99.90
25050;DHT22;13046;49.814;9.918;2023-05-07T06:21:36;14.60;99.90
25050;DHT22;13046;49.814;9.918;2023-05-07T06:24:02;14.60;99.90
25050;DHT22;13046;49.814;9.918;2023-05-07T06:26:27;14.70;99.90
25050;DHT22;13046;49.814;9.918;2023-05-07T06:28:53;14.80;99.90
25050;DHT22;13046;49.814;9.918;2023-05-07T06:31:20;14.80;99.90
25050;DHT22;13046;49.814;9.918;2023-05-07T06:34:00;14.90;99.90
25050;DHT22;13046;49.814;9.918;2023-05-07T06:36:32;15.10;99.90
25050;DHT22;13046;49.814;9.918;2023-05-07T06:39:01;15.20;99.90
25050;DHT22;13046;49.814;9.918;2023-05-07T06:41:27;15.20;99.90
25050;DHT22;13046;49.814;9.918;2023-05-07T06:43:54;15.20;99.90
25050;DHT22;13046;49.814;9.918;2023-05-07T06:46:42;15.20;99.90
25050;DHT22;13046;49.814;9.918;2023-05-07T06:49:08;15.40;99.90
25050;DHT22;13046;49.814;9.918;2023-05-07T06:51:34;15.60;99.90
25050;DHT22;13046;49.814;9.918;2023-05-07T06:54:02;15.70;99.90
25050;DHT22;13046;49.814;9.918;2023-05-07T06:56:30;15.80;99.90
25050;DHT22;13046;49.814;9.918;2023-05-07T06:58:56;15.80;99.90
25050;DHT22;13046;49.814;9.918;2023-05-07T07:01:22;15.90;99.90
25050;DHT22;13046;49.814;9.918;2023-05-07T07:03:48;15.90;99.90
25050;DHT22;13046;49.814;9.918;2023-05-07T07:06:14;15.90;99.90
25050;DHT22;13046;49.814;9.918;2023-05-07T07:08:40;15.90;99.90
25050;DHT22;13046;49.814;9.918;2023-05-07T07:11:07;15.90;99.90
25050;DHT22;13046;49.814;9.918;2023-05-07T07:13:33;16.00;99.90
25050;DHT22;13046;49.814;9.918;2023-05-07T07:16:00;16.20;99.90
25050;DHT22;13046;49.814;9.918;2023-05-07T07:18:26;16.20;99.90
25050;DHT22;13046;49.814;9.918;2023-05-07T07:20:53;16.40;99.90
25050;DHT22;13046;49.814;9.918;2023-05-07T07:23:19;16.30;99.90
25050;DHT22;13046;49.814;9.918;2023-05-07T07:25:45;16.20;99.90
25050;DHT22;13046;49.814;9.918;2023-05-07T07:28:11;16.30;99.90
25050;DHT22;13046;49.814;9.918;2023-05-07T07:30:38;16.40;99.90
25050;DHT22;13046;49.814;9.918;2023-05-07T07:33:04;16.80;99.90
25050;DHT22;13046;49.814;9.918;2023-05-07T07:35:34;17.10;99.90
25050;DHT22;13046;49.814;9.918;2023-05-07T07:38:00;16.90;99.90
25050;DHT22;13046;49.814;9.918;2023-05-07T07:40:27;16.90;99.90
25050;DHT22;13046;49.814;9.918;2023-05-07T07:42:53;17.10;99.90
25050;DHT22;13046;49.814;9.918;2023-05-07T07:45:19;17.40;99.90
25050;DHT22;13046;49.814;9.918;2023-05-07T07:47:47;17.40;99.90
25050;DHT22;13046;49.814;9.918;2023-05-07T07:50:13;17.40;99.90
25050;DHT22;13046;49.814;9.918;2023-05-07T07:52:39;17.30;99.90
25050;DHT22;13046;49.814;9.918;2023-05-07T07:55:06;17.30;99.90
25050;DHT22;13046;49.814;9.918;2023-05-07T07:57:33;17.20;99.90
25050;DHT22;13046;49.814;9.918;2023-05-07T07:59:59;17.10;99.90
25050;DHT22;13046;49.814;9.918;2023-05-07T08:02:25;16.90;99.90
25050;DHT22;13046;49.814;9.918;2023-05-07T08:04:50;16.90;99.90
25050;DHT22;13046;49.814;9.918;2023-05-07T08:07:17;16.90;99.90
25050;DHT22;13046;49.814;9.918;2023-05-07T08:09:47;16.90;99.90
25050;DHT22;13046;49.814;9.918;2023-05-07T08:12:14;17.00;99.90
25050;DHT22;13046;49.814;9.918;2023-05-07T08:14:40;16.90;99.90
25050;DHT22;13046;49.814;9.918;2023-05-07T08:17:07;16.90;99.90
25050;DHT22;13046;49.814;9.918;2023-05-07T08:19:33;17.10;99.90
25050;DHT22;13046;49.814;9.918;2023-05-07T08:22:00;17.00;99.90
25050;DHT22;13046;49.814;9.918;2023-05-07T08:24:26;17.10;99.90
25050;DHT22;13046;49.814;9.918;2023-05-07T08:26:52;17.00;99.90
25050;DHT22;13046;49.814;9.918;2023-05-07T08:29:18;16.90;99.90
25050;DHT22;13046;49.814;9.918;2023-05-07T08:31:46;17.20;99.90
25050;DHT22;13046;49.814;9.918;2023-05-07T08:34:11;17.30;99.90
25050;DHT22;13046;49.814;9.918;2023-05-07T08:36:41;17.30;99.90
25050;DHT22;13046;49.814;9.918;2023-05-07T08:39:08;17.30;99.90
25050;DHT22;13046;49.814;9.918;2023-05-07T08:41:34;17.50;99.90
25050;DHT22;13046;49.814;9.918;2023-05-07T08:44:03;17.70;99.90
25050;DHT22;13046;49.814;9.918;2023-05-07T08:46:31;17.60;99.90
25050;DHT22;13046;49.814;9.918;2023-05-07T08:48:58;17.80;99.90
25050;DHT22;13046;49.814;9.918;2023-05-07T08:51:24;18.10;99.90
25050;DHT22;13046;49.814;9.918;2023-05-07T08:53:51;18.50;99.90
25050;DHT22;13046;49.814;9.918;2023-05-07T08:56:23;18.80;99.90
25050;DHT22;13046;49.814;9.918;2023-05-07T08:58:50;18.90;99.90
25050;DHT22;13046;49.814;9.918;2023-05-07T09:01:17;19.30;99.90
25050;DHT22;13046;49.814;9.918;2023-05-07T09:03:46;19.70;99.90
25050;DHT22;13046;49.814;9.918;2023-05-07T09:06:12;19.50;99.90
25050;DHT22;13046;49.814;9.918;2023-05-07T09:08:39;19.20;99.90
25050;DHT22;13046;49.814;9.918;2023-05-07T09:11:06;18.70;99.90
25050;DHT22;13046;49.814;9.918;2023-05-07T09:13:32;18.50;99.90
25050;DHT22;13046;49.814;9.918;2023-05-07T09:16:10;18.60;99.90
25050;DHT22;13046;49.814;9.918;2023-05-07T09:18:44;18.70;99.90
25050;DHT22;13046;49.814;9.918;2023-05-07T09:21:15;18.60;99.90
25050;DHT22;13046;49.814;9.918;2023-05-07T09:23:41;18.60;99.90
25050;DHT22;13046;49.814;9.918;2023-05-07T09:26:07;18.60;99.90
25050;DHT22;13046;49.814;9.918;2023-05-07T09:28:41;18.80;99.90
25050;DHT22;13046;49.814;9.918;2023-05-07T09:31:10;19.00;99.90
25050;DHT22;13046;49.814;9.918;2023-05-07T09:33:36;18.90;99.90
25050;DHT22;13046;49.814;9.918;2023-05-07T09:36:08;19.10;99.90
25050;DHT22;13046;49.814;9.918;2023-05-07T09:38:37;19.10;99.90
25050;DHT22;13046;49.814;9.918;2023-05-07T09:41:10;18.90;99.90
25050;DHT22;13046;49.814;9.918;2023-05-07T09:43:43;19.30;99.90
25050;DHT22;13046;49.814;9.918;2023-05-07T09:46:15;19.90;99.90
25050;DHT22;13046;49.814;9.918;2023-05-07T09:48:48;20.80;99.90
25050;DHT22;13046;49.814;9.918;2023-05-07T09:51:24;21.20;99.90
25050;DHT22;13046;49.814;9.918;2023-05-07T09:53:53;21.40;99.90
25050;DHT22;13046;49.814;9.918;2023-05-07T09:56:19;21.30;99.90
25050;DHT22;13046;49.814;9.918;2023-05-07T09:58:46;21.50;99.90
25050;DHT22;13046;49.814;9.918;2023-05-07T10:01:13;21.00;99.90
25050;DHT22;13046;49.814;9.918;2023-05-07T10:03:41;21.10;99.90
25050;DHT22;13046;49.814;9.918;2023-05-07T10:06:10;20.70;99.90
25050;DHT22;13046;49.814;9.918;2023-05-07T10:08:37;21.20;99.90
25050;DHT22;13046;49.814;9.918;2023-05-07T10:11:04;21.80;99.90
25050;DHT22;13046;49.814;9.918;2023-05-07T10:13:33;21.90;99.90
25050;DHT22;13046;49.814;9.918;2023-05-07T10:16:06;21.70;99.90
25050;DHT22;13046;49.814;9.918;2023-05-07T10:18:38;22.10;99.90
25050;DHT22;13046;49.814;9.918;2023-05-07T10:21:16;21.80;99.90
25050;DHT22;13046;49.814;9.918;2023-05-07T10:23:45;21.70;99.90
25050;DHT22;13046;49.814;9.918;2023-05-07T10:26:13;21.90;99.90
25050;DHT22;13046;49.814;9.918;2023-05-07T10:28:43;21.30;99.90
25050;DHT22;13046;49.814;9.918;2023-05-07T10:31:25;21.50;99.90
25050;DHT22;13046;49.814;9.918;2023-05-07T10:33:55;22.30;99.90
25050;DHT22;13046;49.814;9.918;2023-05-07T10:36:23;22.70;99.90
25050;DHT22;13046;49.814;9.918;2023-05-07T10:38:51;22.40;99.90
25050;DHT22;13046;49.814;9.918;2023-05-07T10:41:17;22.10;99.90
25050;DHT22;13046;49.814;9.918;2023-05-07T10:43:45;21.90;99.90
25050;DHT22;13046;49.814;9.918;2023-05-07T10:46:22;21.90;99.90
25050;DHT22;13046;49.814;9.918;2023-05-07T10:52:17;22.60;99.90
25050;DHT22;13046;49.814;9.918;2023-05-07T10:57:49;22.20;99.90
25050;DHT22;13046;49.814;9.918;2023-05-07T11:05:32;23.20;99.90
25050;DHT22;13046;49.814;9.918;2023-05-07T11:08:14;22.90;99.90
25050;DHT22;13046;49.814;9.918;2023-05-07T11:10:54;23.30;99.90
25050;DHT22;13046;49.814;9.918;2023-05-07T11:13:46;23.40;99.90
25050;DHT22;13046;49.814;9.918;2023-05-07T11:16:32;22.90;99.90
25050;DHT22;13046;49.814;9.918;2023-05-07T11:19:09;22.80;99.90
25050;DHT22;13046;49.814;9.918;2023-05-07T11:21:42;22.60;99.90
25050;DHT22;13046;49.814;9.918;2023-05-07T11:24:17;22.20;99.90
25050;DHT22;13046;49.814;9.918;2023-05-07T11:26:53;22.40;99.90
25050;DHT22;13046;49.814;9.918;2023-05-07T11:29:21;22.70;99.90
25050;DHT22;13046;49.814;9.918;2023-05-07T11:31:53;22.90;99.90
25050;DHT22;13046;49.814;9.918;2023-05-07T11:34:22;23.30;99.90
25050;DHT22;13046;49.814;9.918;2023-05-07T11:36:50;24.00;99.90
25050;DHT22;13046;49.814;9.918;2023-05-07T11:39:30;24.60;99.90
25050;DHT22;13046;49.814;9.918;2023-05-07T11:41:57;25.20;99.90
25050;DHT22;13046;49.814;9.918;2023-05-07T11:44:22;25.10;99.90
25050;DHT22;13046;49.814;9.918;2023-05-07T11:46:49;24.40;99.90
25050;DHT22;13046;49.814;9.918;2023-05-07T11:49:14;24.30;99.90
25050;DHT22;13046;49.814;9.918;2023-05-07T11:51:41;24.80;99.90
25050;DHT22;13046;49.814;9.918;2023-05-07T11:54:09;24.60;99.90
25050;DHT22;13046;49.814;9.918;2023-05-07T11:56:36;25.00;99.90
25050;DHT22;13046;49.814;9.918;2023-05-07T11:59:02;25.30;99.90
25050;DHT22;13046;49.814;9.918;2023-05-07T12:01:28;25.40;99.90
25050;DHT22;13046;49.814;9.918;2023-05-07T12:03:54;25.30;99.90
25050;DHT22;13046;49.814;9.918;2023-05-07T12:06:19;25.60;99.90
25050;DHT22;13046;49.814;9.918;2023-05-07T12:08:46;26.20;99.90
25050;DHT22;13046;49.814;9.918;2023-05-07T12:11:22;26.00;99.90
25050;DHT22;13046;49.814;9.918;2023-05-07T12:13:47;26.00;99.90
25050;DHT22;13046;49.814;9.918;2023-05-07T12:16:14;26.40;99.90
25050;DHT22;13046;49.814;9.918;2023-05-07T12:18:40;26.20;99.90
25050;DHT22;13046;49.814;9.918;2023-05-07T12:21:06;25.90;99.90
25050;DHT22;13046;49.814;9.918;2023-05-07T12:23:34;25.80;99.90
25050;DHT22;13046;49.814;9.918;2023-05-07T12:26:01;25.40;99.90
25050;DHT22;13046;49.814;9.918;2023-05-07T12:28:27;25.50;99.90
25050;DHT22;13046;49.814;9.918;2023-05-07T12:30:53;25.70;99.90
25050;DHT22;13046;49.814;9.918;2023-05-07T12:33:24;25.80;99.90
25050;DHT22;13046;49.814;9.918;2023-05-07T12:35:50;25.60;99.90
25050;DHT22;13046;49.814;9.918;2023-05-07T12:38:17;25.60;99.90
25050;DHT22;13046;49.814;9.918;2023-05-07T12:40:44;25.20;99.90
25050;DHT22;13046;49.814;9.918;2023-05-07T12:43:21;25.30;99.90
25050;DHT22;13046;49.814;9.918;2023-05-07T12:45:50;25.30;99.90
25050;DHT22;13046;49.814;9.918;2023-05-07T12:48:16;25.90;99.90
25050;DHT22;13046;49.814;9.918;2023-05-07T12:50:42;26.30;99.90
25050;DHT22;13046;49.814;9.918;2023-05-07T12:53:10;26.60;99.90
25050;DHT22;13046;49.814;9.918;2023-05-07T12:55:45;27.10;99.90
25050;DHT22;13046;49.814;9.918;2023-05-07T13:00:45;27.50;99.90
25050;DHT22;13046;49.814;9.918;2023-05-07T13:03:21;27.90;99.90
25050;DHT22;13046;49.814;9.918;2023-05-07T13:05:47;27.30;99.90
25050;DHT22;13046;49.814;9.918;2023-05-07T13:08:32;27.30;99.90
25050;DHT22;13046;49.814;9.918;2023-05-07T13:11:00;26.90;99.90
25050;DHT22;13046;49.814;9.918;2023-05-07T13:13:29;26.90;99.90
25050;DHT22;13046;49.814;9.918;2023-05-07T13:15:55;26.90;99.90
25050;DHT22;13046;49.814;9.918;2023-05-07T13:18:21;27.10;99.90
25050;DHT22;13046;49.814;9.918;2023-05-07T13:20:47;26.70;99.90
25050;DHT22;13046;49.814;9.918;2023-05-07T13:23:12;26.90;99.90
25050;DHT22;13046;49.814;9.918;2023-05-07T13:25:38;27.50;99.90
25050;DHT22;13046;49.814;9.918;2023-05-07T13:28:04;27.60;99.90
25050;DHT22;13046;49.814;9.918;2023-05-07T13:30:30;27.80;99.90
25050;DHT22;13046;49.814;9.918;2023-05-07T13:32:56;28.20;99.90
25050;DHT22;13046;49.814;9.918;2023-05-07T13:35:22;27.90;99.90
25050;DHT22;13046;49.814;9.918;2023-05-07T13:37:47;27.90;99.90
25050;DHT22;13046;49.814;9.918;2023-05-07T13:40:15;27.90;99.90
25050;DHT22;13046;49.814;9.918;2023-05-07T13:42:40;27.70;99.90
25050;DHT22;13046;49.814;9.918;2023-05-07T13:45:07;27.50;99.90
25050;DHT22;13046;49.814;9.918;2023-05-07T13:47:34;27.10;99.90
25050;DHT22;13046;49.814;9.918;2023-05-07T13:49:59;26.10;99.90
25050;DHT22;13046;49.814;9.918;2023-05-07T13:52:25;25.60;99.90
25050;DHT22;13046;49.814;9.918;2023-05-07T13:54:51;25.60;99.90
25050;DHT22;13046;49.814;9.918;2023-05-07T13:57:18;25.80;99.90
25050;DHT22;13046;49.814;9.918;2023-05-07T13:59:44;26.00;99.90
25050;DHT22;13046;49.814;9.918;2023-05-07T14:02:09;25.70;99.90
25050;DHT22;13046;49.814;9.918;2023-05-07T14:04:36;25.60;99.90
25050;DHT22;13046;49.814;9.918;2023-05-07T14:07:03;25.60;99.90
25050;DHT22;13046;49.814;9.918;2023-05-07T14:09:28;25.70;99.90
25050;DHT22;13046;49.814;9.918;2023-05-07T14:11:54;25.50;99.90
25050;DHT22;13046;49.814;9.918;2023-05-07T14:14:20;25.70;99.90
25050;DHT22;13046;49.814;9.918;2023-05-07T14:16:45;25.60;99.90
25050;DHT22;13046;49.814;9.918;2023-05-07T14:19:12;25.60;99.90
25050;DHT22;13046;49.814;9.918;2023-05-07T14:21:37;25.70;99.90
25050;DHT22;13046;49.814;9.918;2023-05-07T14:24:03;25.60;99.90
25050;DHT22;13046;49.814;9.918;2023-05-07T14:26:29;25.40;99.90
25050;DHT22;13046;49.814;9.918;2023-05-07T14:28:55;25.20;99.90
25050;DHT22;13046;49.814;9.918;2023-05-07T14:31:24;25.40;99.90
25050;DHT22;13046;49.814;9.918;2023-05-07T14:33:50;25.30;99.90
25050;DHT22;13046;49.814;9.918;2023-05-07T14:36:16;25.80;99.90
25050;DHT22;13046;49.814;9.918;2023-05-07T14:38:43;26.00;99.90
25050;DHT22;13046;49.814;9.918;2023-05-07T14:41:08;25.90;99.90
25050;DHT22;13046;49.814;9.918;2023-05-07T14:43:34;25.80;99.90
25050;DHT22;13046;49.814;9.918;2023-05-07T14:45:59;25.80;99.90
25050;DHT22;13046;49.814;9.918;2023-05-07T14:48:25;25.30;99.90
25050;DHT22;13046;49.814;9.918;2023-05-07T14:50:51;24.50;99.90
25050;DHT22;13046;49.814;9.918;2023-05-07T14:53:16;24.80;99.90
25050;DHT22;13046;49.814;9.918;2023-05-07T14:55:42;24.90;99.90
25050;DHT22;13046;49.814;9.918;2023-05-07T14:58:08;24.60;99.90
25050;DHT22;13046;49.814;9.918;2023-05-07T15:00:33;24.30;99.90
25050;DHT22;13046;49.814;9.918;2023-05-07T15:03:05;24.20;99.90
25050;DHT22;13046;49.814;9.918;2023-05-07T15:05:32;24.20;99.90
25050;DHT22;13046;49.814;9.918;2023-05-07T15:07:58;24.10;99.90
25050;DHT22;13046;49.814;9.918;2023-05-07T15:10:23;23.90;99.90
25050;DHT22;13046;49.814;9.918;2023-05-07T15:12:49;23.60;99.90
25050;DHT22;13046;49.814;9.918;2023-05-07T15:15:15;23.40;99.90
25050;DHT22;13046;49.814;9.918;2023-05-07T15:17:40;23.50;99.90
25050;DHT22;13046;49.814;9.918;2023-05-07T15:20:06;23.50;99.90
25050;DHT22;13046;49.814;9.918;2023-05-07T15:22:32;23.30;99.90
25050;DHT22;13046;49.814;9.918;2023-05-07T15:24:58;23.10;99.90
25050;DHT22;13046;49.814;9.918;2023-05-07T15:27:24;23.10;99.90
25050;DHT22;13046;49.814;9.918;2023-05-07T15:29:50;22.80;99.90
25050;DHT22;13046;49.814;9.918;2023-05-07T15:32:16;22.80;99.90
25050;DHT22;13046;49.814;9.918;2023-05-07T15:34:41;22.80;99.90
25050;DHT22;13046;49.814;9.918;2023-05-07T15:37:07;22.80;99.90
25050;DHT22;13046;49.814;9.918;2023-05-07T15:39:33;22.80;99.90
25050;DHT22;13046;49.814;9.918;2023-05-07T15:41:58;22.80;99.90
25050;DHT22;13046;49.814;9.918;2023-05-07T15:44:24;22.70;99.90
25050;DHT22;13046;49.814;9.918;2023-05-07T15:46:54;22.80;99.90